sensor_id;sensor_type;location;lat;lon;timestamp;temperature;humidity
25450;DHT22;13371;52.080;5.624;2023-04-03T00:02:05;6.30;93.10
25450;DHT22;13371;52.080;5.624;2023-04-03T00:04:31;6.20;93.40
25450;DHT22;13371;52.080;5.624;2023-04-03T00:06:56;6.00;94.10
25450;DHT22;13371;52.080;5.624;2023-04-03T00:09:22;6.00;94.10
25450;DHT22;13371;52.080;5.624;2023-04-03T00:11:48;6.00;93.90
25450;DHT22;13371;52.080;5.624;2023-04-03T00:14:13;6.00;93.60
25450;DHT22;13371;52.080;5.624;2023-04-03T00:16:39;6.00;93.80
25450;DHT22;13371;52.080;5.624;2023-04-03T00:19:04;5.90;93.90
25450;DHT22;13371;52.080;5.624;2023-04-03T00:21:31;5.80;94.10
25450;DHT22;13371;52.080;5.624;2023-04-03T00:23:57;5.90;94.30
25450;DHT22;13371;52.080;5.624;2023-04-03T00:26:22;5.90;94.00
25450;DHT22;13371;52.080;5.624;2023-04-03T00:28:48;6.00;94.10
25450;DHT22;13371;52.080;5.624;2023-04-03T00:31:17;6.20;93.60
25450;DHT22;13371;52.080;5.624;2023-04-03T00:33:42;5.80;94.20
25450;DHT22;13371;52.080;5.624;2023-04-03T00:36:09;5.70;94.10
25450;DHT22;13371;52.080;5.624;2023-04-03T00:38:35;5.50;94.70
25450;DHT22;13371;52.080;5.624;2023-04-03T00:41:01;5.90;94.50
25450;DHT22;13371;52.080;5.624;2023-04-03T00:43:27;5.60;94.30
25450;DHT22;13371;52.080;5.624;2023-04-03T00:45:57;5.70;94.60
25450;DHT22;13371;52.080;5.624;2023-04-03T00:51:07;6.10;94.00
25450;DHT22;13371;52.080;5.624;2023-04-03T00:53:43;5.90;93.80
25450;DHT22;13371;52.080;5.624;2023-04-03T00:56:13;6.00;93.90
25450;DHT22;13371;52.080;5.624;2023-04-03T00:59:00;5.90;94.00
25450;DHT22;13371;52.080;5.624;2023-04-03T01:01:28;5.90;94.20
25450;DHT22;13371;52.080;5.624;2023-04-03T01:03:54;5.70;94.70
25450;DHT22;13371;52.080;5.624;2023-04-03T01:06:24;5.70;94.70
25450;DHT22;13371;52.080;5.624;2023-04-03T01:08:52;5.80;94.50
25450;DHT22;13371;52.080;5.624;2023-04-03T01:11:18;5.80;94.50
25450;DHT22;13371;52.080;5.624;2023-04-03T01:13:43;5.60;94.80
25450;DHT22;13371;52.080;5.624;2023-04-03T01:16:09;5.50;95.20
25450;DHT22;13371;52.080;5.624;2023-04-03T01:18:37;5.70;95.20
25450;DHT22;13371;52.080;5.624;2023-04-03T01:21:14;5.80;94.80
25450;DHT22;13371;52.080;5.624;2023-04-03T01:26:46;5.90;94.50
25450;DHT22;13371;52.080;5.624;2023-04-03T01:29:11;6.00;94.20
25450;DHT22;13371;52.080;5.624;2023-04-03T01:31:49;5.90;94.40
25450;DHT22;13371;52.080;5.624;2023-04-03T01:34:15;6.10;94.40
25450;DHT22;13371;52.080;5.624;2023-04-03T01:36:40;6.10;94.10
25450;DHT22;13371;52.080;5.624;2023-04-03T01:39:06;5.80;94.40
25450;DHT22;13371;52.080;5.624;2023-04-03T01:41:32;5.70;94.80
25450;DHT22;13371;52.080;5.624;2023-04-03T01:43:58;5.70;95.20
25450;DHT22;13371;52.080;5.624;2023-04-03T01:46:23;6.00;94.60
25450;DHT22;13371;52.080;5.624;2023-04-03T01:48:49;5.90;94.70
25450;DHT22;13371;52.080;5.624;2023-04-03T01:51:15;5.80;95.20
25450;DHT22;13371;52.080;5.624;2023-04-03T01:53:40;5.50;95.50
25450;DHT22;13371;52.080;5.624;2023-04-03T01:56:06;5.40;95.80
25450;DHT22;13371;52.080;5.624;2023-04-03T01:58:32;5.40;95.90
25450;DHT22;13371;52.080;5.624;2023-04-03T02:00:57;5.20;96.00
25450;DHT22;13371;52.080;5.624;2023-04-03T02:03:23;5.10;96.20
25450;DHT22;13371;52.080;5.624;2023-04-03T02:05:49;5.40;96.20
25450;DHT22;13371;52.080;5.624;2023-04-03T02:08:15;5.40;96.20
25450;DHT22;13371;52.080;5.624;2023-04-03T02:10:47;5.50;96.10
25450;DHT22;13371;52.080;5.624;2023-04-03T02:13:13;5.60;95.70
25450;DHT22;13371;52.080;5.624;2023-04-03T02:15:39;5.40;95.90
25450;DHT22;13371;52.080;5.624;2023-04-03T02:18:05;5.30;96.10
25450;DHT22;13371;52.080;5.624;2023-04-03T02:20:31;5.20;96.60
25450;DHT22;13371;52.080;5.624;2023-04-03T02:22:57;5.20;96.50
25450;DHT22;13371;52.080;5.624;2023-04-03T02:25:23;5.10;97.00
25450;DHT22;13371;52.080;5.624;2023-04-03T02:27:48;5.20;96.80
25450;DHT22;13371;52.080;5.624;2023-04-03T02:30:14;5.30;96.50
25450;DHT22;13371;52.080;5.624;2023-04-03T02:32:41;5.40;96.30
25450;DHT22;13371;52.080;5.624;2023-04-03T02:35:07;5.50;96.20
25450;DHT22;13371;52.080;5.624;2023-04-03T02:37:33;5.30;96.70
25450;DHT22;13371;52.080;5.624;2023-04-03T02:39:59;5.20;96.50
25450;DHT22;13371;52.080;5.624;2023-04-03T02:42:24;5.30;96.70
25450;DHT22;13371;52.080;5.624;2023-04-03T02:44:50;5.30;96.60
25450;DHT22;13371;52.080;5.624;2023-04-03T02:47:16;5.40;96.50
25450;DHT22;13371;52.080;5.624;2023-04-03T02:49:41;5.20;96.60
25450;DHT22;13371;52.080;5.624;2023-04-03T02:52:10;5.50;96.50
25450;DHT22;13371;52.080;5.624;2023-04-03T02:54:36;5.30;96.60
25450;DHT22;13371;52.080;5.624;2023-04-03T02:57:01;5.40;96.80
25450;DHT22;13371;52.080;5.624;2023-04-03T02:59:27;5.30;96.90
25450;DHT22;13371;52.080;5.624;2023-04-03T03:01:53;5.30;96.80
25450;DHT22;13371;52.080;5.624;2023-04-03T03:04:18;5.20;96.80
25450;DHT22;13371;52.080;5.624;2023-04-03T03:06:44;5.10;97.60
25450;DHT22;13371;52.080;5.624;2023-04-03T03:09:10;4.80;98.00
25450;DHT22;13371;52.080;5.624;2023-04-03T03:11:35;4.90;98.40
25450;DHT22;13371;52.080;5.624;2023-04-03T03:14:01;5.00;97.70
25450;DHT22;13371;52.080;5.624;2023-04-03T03:16:26;5.10;97.70
25450;DHT22;13371;52.080;5.624;2023-04-03T03:18:52;5.20;97.30
25450;DHT22;13371;52.080;5.624;2023-04-03T03:21:18;5.10;97.50
25450;DHT22;13371;52.080;5.624;2023-04-03T03:23:43;5.00;97.70
25450;DHT22;13371;52.080;5.624;2023-04-03T03:26:10;5.20;97.50
25450;DHT22;13371;52.080;5.624;2023-04-03T03:28:37;5.10;97.50
25450;DHT22;13371;52.080;5.624;2023-04-03T03:31:04;5.10;97.50
25450;DHT22;13371;52.080;5.624;2023-04-03T03:33:29;5.10;97.60
25450;DHT22;13371;52.080;5.624;2023-04-03T03:35:56;5.00;97.70
25450;DHT22;13371;52.080;5.624;2023-04-03T03:38:21;4.90;98.20
25450;DHT22;13371;52.080;5.624;2023-04-03T03:40:48;4.80;98.60
25450;DHT22;13371;52.080;5.624;2023-04-03T03:43:15;4.80;98.50
25450;DHT22;13371;52.080;5.624;2023-04-03T03:45:40;4.70;98.60
25450;DHT22;13371;52.080;5.624;2023-04-03T03:48:06;5.00;98.60
25450;DHT22;13371;52.080;5.624;2023-04-03T03:50:32;5.00;98.60
25450;DHT22;13371;52.080;5.624;2023-04-03T03:52:57;5.10;98.20
25450;DHT22;13371;52.080;5.624;2023-04-03T03:55:23;4.90;98.00
25450;DHT22;13371;52.080;5.624;2023-04-03T03:57:49;5.20;98.70
25450;DHT22;13371;52.080;5.624;2023-04-03T04:00:14;5.20;97.80
25450;DHT22;13371;52.080;5.624;2023-04-03T04:02:40;5.00;98.10
25450;DHT22;13371;52.080;5.624;2023-04-03T04:05:06;5.00;98.40
25450;DHT22;13371;52.080;5.624;2023-04-03T04:07:31;4.80;98.40
25450;DHT22;13371;52.080;5.624;2023-04-03T04:09:57;4.70;98.80
25450;DHT22;13371;52.080;5.624;2023-04-03T04:12:23;4.80;99.10
25450;DHT22;13371;52.080;5.624;2023-04-03T04:14:48;4.80;99.00
25450;DHT22;13371;52.080;5.624;2023-04-03T04:17:14;4.80;98.70
25450;DHT22;13371;52.080;5.624;2023-04-03T04:19:40;4.60;99.20
25450;DHT22;13371;52.080;5.624;2023-04-03T04:22:05;4.80;99.20
25450;DHT22;13371;52.080;5.624;2023-04-03T04:24:31;4.70;99.30
25450;DHT22;13371;52.080;5.624;2023-04-03T04:26:57;4.60;99.30
25450;DHT22;13371;52.080;5.624;2023-04-03T04:29:22;4.50;99.30
25450;DHT22;13371;52.080;5.624;2023-04-03T04:31:48;4.60;99.40
25450;DHT22;13371;52.080;5.624;2023-04-03T04:34:14;4.70;99.40
25450;DHT22;13371;52.080;5.624;2023-04-03T04:36:39;4.70;99.30
25450;DHT22;13371;52.080;5.624;2023-04-03T04:39:05;4.40;99.60
25450;DHT22;13371;52.080;5.624;2023-04-03T04:41:31;4.50;99.90
25450;DHT22;13371;52.080;5.624;2023-04-03T04:43:57;4.20;99.90
25450;DHT22;13371;52.080;5.624;2023-04-03T04:46:23;4.20;99.90
25450;DHT22;13371;52.080;5.624;2023-04-03T04:48:48;4.10;99.90
25450;DHT22;13371;52.080;5.624;2023-04-03T04:51:14;4.40;99.90
25450;DHT22;13371;52.080;5.624;2023-04-03T04:53:41;4.30;99.90
25450;DHT22;13371;52.080;5.624;2023-04-03T04:56:08;4.20;99.90
25450;DHT22;13371;52.080;5.624;2023-04-03T04:58:33;4.10;99.90
25450;DHT22;13371;52.080;5.624;2023-04-03T05:01:00;4.10;99.90
25450;DHT22;13371;52.080;5.624;2023-04-03T05:03:26;4.30;99.90
25450;DHT22;13371;52.080;5.624;2023-04-03T05:05:52;4.40;99.90
25450;DHT22;13371;52.080;5.624;2023-04-03T05:08:17;4.30;99.90
25450;DHT22;13371;52.080;5.624;2023-04-03T05:10:45;4.30;99.90
25450;DHT22;13371;52.080;5.624;2023-04-03T05:13:11;4.30;99.90
25450;DHT22;13371;52.080;5.624;2023-04-03T05:15:36;4.20;99.90
25450;DHT22;13371;52.080;5.624;2023-04-03T05:18:02;3.70;99.90
25450;DHT22;13371;52.080;5.624;2023-04-03T05:20:27;4.00;99.90
25450;DHT22;13371;52.080;5.624;2023-04-03T05:22:53;4.00;99.90
25450;DHT22;13371;52.080;5.624;2023-04-03T05:25:18;4.00;99.90
25450;DHT22;13371;52.080;5.624;2023-04-03T05:27:44;4.00;99.90
25450;DHT22;13371;52.080;5.624;2023-04-03T05:30:10;3.80;99.90
25450;DHT22;13371;52.080;5.624;2023-04-03T05:32:36;3.90;99.90
25450;DHT22;13371;52.080;5.624;2023-04-03T05:35:01;4.10;99.90
25450;DHT22;13371;52.080;5.624;2023-04-03T05:37:27;4.10;99.90
25450;DHT22;13371;52.080;5.624;2023-04-03T05:39:53;4.00;99.90
25450;DHT22;13371;52.080;5.624;2023-04-03T05:42:18;4.00;99.90
25450;DHT22;13371;52.080;5.624;2023-04-03T05:44:44;3.90;99.90
25450;DHT22;13371;52.080;5.624;2023-04-03T05:47:12;4.00;99.90
25450;DHT22;13371;52.080;5.624;2023-04-03T05:49:37;4.00;99.90
25450;DHT22;13371;52.080;5.624;2023-04-03T05:52:09;4.20;99.90
25450;DHT22;13371;52.080;5.624;2023-04-03T05:54:37;4.30;99.90
25450;DHT22;13371;52.080;5.624;2023-04-03T05:57:02;4.30;99.90
25450;DHT22;13371;52.080;5.624;2023-04-03T05:59:28;4.30;99.90
25450;DHT22;13371;52.080;5.624;2023-04-03T06:01:53;4.30;99.90
25450;DHT22;13371;52.080;5.624;2023-04-03T06:04:19;4.30;99.90
25450;DHT22;13371;52.080;5.624;2023-04-03T06:09:11;4.20;99.90
25450;DHT22;13371;52.080;5.624;2023-04-03T06:11:37;4.20;99.90
25450;DHT22;13371;52.080;5.624;2023-04-03T06:14:03;4.30;99.90
25450;DHT22;13371;52.080;5.624;2023-04-03T06:16:28;4.20;99.90
25450;DHT22;13371;52.080;5.624;2023-04-03T06:18:54;4.10;99.90
25450;DHT22;13371;52.080;5.624;2023-04-03T06:21:20;4.10;99.90
25450;DHT22;13371;52.080;5.624;2023-04-03T06:23:46;4.30;99.90
25450;DHT22;13371;52.080;5.624;2023-04-03T06:26:11;4.20;99.90
25450;DHT22;13371;52.080;5.624;2023-04-03T06:28:37;4.30;99.90
25450;DHT22;13371;52.080;5.624;2023-04-03T06:31:02;4.20;99.90
25450;DHT22;13371;52.080;5.624;2023-04-03T06:33:28;4.30;99.90
25450;DHT22;13371;52.080;5.624;2023-04-03T06:36:00;4.50;99.90
25450;DHT22;13371;52.080;5.624;2023-04-03T06:38:25;4.30;99.90
25450;DHT22;13371;52.080;5.624;2023-04-03T06:40:51;4.50;99.90
25450;DHT22;13371;52.080;5.624;2023-04-03T06:43:17;4.50;99.90
25450;DHT22;13371;52.080;5.624;2023-04-03T06:45:43;4.70;99.80
25450;DHT22;13371;52.080;5.624;2023-04-03T06:48:08;4.50;99.90
25450;DHT22;13371;52.080;5.624;2023-04-03T06:50:34;4.50;99.90
25450;DHT22;13371;52.080;5.624;2023-04-03T06:53:00;4.60;99.90
25450;DHT22;13371;52.080;5.624;2023-04-03T06:55:26;4.90;99.90
25450;DHT22;13371;52.080;5.624;2023-04-03T06:57:52;5.00;99.00
25450;DHT22;13371;52.080;5.624;2023-04-03T07:00:18;4.80;99.40
25450;DHT22;13371;52.080;5.624;2023-04-03T07:02:43;4.90;99.50
25450;DHT22;13371;52.080;5.624;2023-04-03T07:05:09;4.70;98.70
25450;DHT22;13371;52.080;5.624;2023-04-03T07:07:35;4.70;99.90
25450;DHT22;13371;52.080;5.624;2023-04-03T07:10:01;4.70;99.50
25450;DHT22;13371;52.080;5.624;2023-04-03T07:12:26;5.30;98.50
25450;DHT22;13371;52.080;5.624;2023-04-03T07:14:52;5.40;98.20
25450;DHT22;13371;52.080;5.624;2023-04-03T07:17:18;5.80;97.50
25450;DHT22;13371;52.080;5.624;2023-04-03T07:19:43;6.00;96.70
25450;DHT22;13371;52.080;5.624;2023-04-03T07:22:09;6.20;96.20
25450;DHT22;13371;52.080;5.624;2023-04-03T07:24:36;5.80;95.70
25450;DHT22;13371;52.080;5.624;2023-04-03T07:27:02;5.60;96.40
25450;DHT22;13371;52.080;5.624;2023-04-03T07:29:28;5.80;96.10
25450;DHT22;13371;52.080;5.624;2023-04-03T07:31:53;5.50;95.30
25450;DHT22;13371;52.080;5.624;2023-04-03T07:34:20;5.60;95.60
25450;DHT22;13371;52.080;5.624;2023-04-03T07:36:46;6.00;95.40
25450;DHT22;13371;52.080;5.624;2023-04-03T07:39:12;6.30;94.90
25450;DHT22;13371;52.080;5.624;2023-04-03T07:41:37;6.70;94.10
25450;DHT22;13371;52.080;5.624;2023-04-03T07:44:03;6.90;93.00
25450;DHT22;13371;52.080;5.624;2023-04-03T07:46:31;6.90;91.70
25450;DHT22;13371;52.080;5.624;2023-04-03T07:48:56;6.20;92.10
25450;DHT22;13371;52.080;5.624;2023-04-03T07:51:22;6.30;91.40
25450;DHT22;13371;52.080;5.624;2023-04-03T07:53:48;6.20;91.90
25450;DHT22;13371;52.080;5.624;2023-04-03T07:56:14;6.60;91.90
25450;DHT22;13371;52.080;5.624;2023-04-03T07:58:40;6.40;91.90
25450;DHT22;13371;52.080;5.624;2023-04-03T08:01:05;6.60;92.20
25450;DHT22;13371;52.080;5.624;2023-04-03T08:03:31;7.10;91.00
25450;DHT22;13371;52.080;5.624;2023-04-03T08:06:04;6.80;90.60
25450;DHT22;13371;52.080;5.624;2023-04-03T08:08:30;7.10;90.50
25450;DHT22;13371;52.080;5.624;2023-04-03T08:10:58;7.30;88.40
25450;DHT22;13371;52.080;5.624;2023-04-03T08:13:24;7.50;88.00
25450;DHT22;13371;52.080;5.624;2023-04-03T08:15:50;7.80;88.50
25450;DHT22;13371;52.080;5.624;2023-04-03T08:18:16;7.70;85.00
25450;DHT22;13371;52.080;5.624;2023-04-03T08:20:43;7.60;84.70
25450;DHT22;13371;52.080;5.624;2023-04-03T08:23:09;7.30;85.30
25450;DHT22;13371;52.080;5.624;2023-04-03T08:25:38;7.30;83.90
25450;DHT22;13371;52.080;5.624;2023-04-03T08:28:04;7.20;84.60
25450;DHT22;13371;52.080;5.624;2023-04-03T08:30:30;7.10;82.50
25450;DHT22;13371;52.080;5.624;2023-04-03T08:32:56;7.50;84.40
25450;DHT22;13371;52.080;5.624;2023-04-03T08:35:21;7.60;81.30
25450;DHT22;13371;52.080;5.624;2023-04-03T08:37:47;7.60;79.00
25450;DHT22;13371;52.080;5.624;2023-04-03T08:40:15;7.80;80.70
25450;DHT22;13371;52.080;5.624;2023-04-03T08:45:16;8.80;80.40
25450;DHT22;13371;52.080;5.624;2023-04-03T08:47:55;8.90;73.40
25450;DHT22;13371;52.080;5.624;2023-04-03T08:50:44;8.70;71.40
25450;DHT22;13371;52.080;5.624;2023-04-03T08:53:14;8.50;72.70
25450;DHT22;13371;52.080;5.624;2023-04-03T08:55:44;8.40;70.90
25450;DHT22;13371;52.080;5.624;2023-04-03T08:58:21;8.70;73.30
25450;DHT22;13371;52.080;5.624;2023-04-03T09:00:51;9.20;73.70
25450;DHT22;13371;52.080;5.624;2023-04-03T09:03:19;9.40;68.80
25450;DHT22;13371;52.080;5.624;2023-04-03T09:05:55;9.10;70.20
25450;DHT22;13371;52.080;5.624;2023-04-03T09:08:28;8.70;67.70
25450;DHT22;13371;52.080;5.624;2023-04-03T09:11:13;8.60;65.50
25450;DHT22;13371;52.080;5.624;2023-04-03T09:13:44;8.70;67.10
25450;DHT22;13371;52.080;5.624;2023-04-03T09:19:07;9.70;67.30
25450;DHT22;13371;52.080;5.624;2023-04-03T09:21:38;9.60;62.60
25450;DHT22;13371;52.080;5.624;2023-04-03T09:24:13;9.20;59.30
25450;DHT22;13371;52.080;5.624;2023-04-03T09:26:46;9.30;59.60
25450;DHT22;13371;52.080;5.624;2023-04-03T09:29:18;9.50;63.80
25450;DHT22;13371;52.080;5.624;2023-04-03T09:31:46;9.00;58.60
25450;DHT22;13371;52.080;5.624;2023-04-03T09:34:22;9.10;60.00
25450;DHT22;13371;52.080;5.624;2023-04-03T09:36:51;9.30;60.50
25450;DHT22;13371;52.080;5.624;2023-04-03T09:39:23;9.60;58.80
25450;DHT22;13371;52.080;5.624;2023-04-03T09:44:34;9.80;56.80
25450;DHT22;13371;52.080;5.624;2023-04-03T09:49:48;9.70;57.50
25450;DHT22;13371;52.080;5.624;2023-04-03T09:52:20;10.10;59.40
25450;DHT22;13371;52.080;5.624;2023-04-03T09:54:45;10.60;56.50
25450;DHT22;13371;52.080;5.624;2023-04-03T09:57:14;10.60;56.60
25450;DHT22;13371;52.080;5.624;2023-04-03T09:59:57;10.50;54.50
25450;DHT22;13371;52.080;5.624;2023-04-03T10:02:34;10.80;55.40
25450;DHT22;13371;52.080;5.624;2023-04-03T10:05:00;10.60;53.20
25450;DHT22;13371;52.080;5.624;2023-04-03T10:07:35;10.10;53.90
25450;DHT22;13371;52.080;5.624;2023-04-03T10:10:17;9.70;57.40
25450;DHT22;13371;52.080;5.624;2023-04-03T10:12:43;10.10;54.70
25450;DHT22;13371;52.080;5.624;2023-04-03T10:15:17;10.20;58.10
25450;DHT22;13371;52.080;5.624;2023-04-03T10:18:14;10.80;53.40
25450;DHT22;13371;52.080;5.624;2023-04-03T10:20:48;10.80;50.50
25450;DHT22;13371;52.080;5.624;2023-04-03T10:36:46;10.20;51.90
25450;DHT22;13371;52.080;5.624;2023-04-03T10:39:46;9.50;52.50
25450;DHT22;13371;52.080;5.624;2023-04-03T10:45:08;9.40;56.20
25450;DHT22;13371;52.080;5.624;2023-04-03T10:53:31;10.50;56.00
25450;DHT22;13371;52.080;5.624;2023-04-03T10:58:48;12.00;56.30
25450;DHT22;13371;52.080;5.624;2023-04-03T11:01:21;12.40;55.10
25450;DHT22;13371;52.080;5.624;2023-04-03T11:03:56;11.70;53.60
25450;DHT22;13371;52.080;5.624;2023-04-03T11:06:25;11.50;54.30
25450;DHT22;13371;52.080;5.624;2023-04-03T11:09:03;11.30;54.50
25450;DHT22;13371;52.080;5.624;2023-04-03T11:11:37;11.40;55.50
25450;DHT22;13371;52.080;5.624;2023-04-03T11:14:26;11.90;56.40
25450;DHT22;13371;52.080;5.624;2023-04-03T11:17:11;12.20;56.50
25450;DHT22;13371;52.080;5.624;2023-04-03T11:22:42;12.40;54.30
25450;DHT22;13371;52.080;5.624;2023-04-03T11:27:48;12.00;54.10
25450;DHT22;13371;52.080;5.624;2023-04-03T11:35:49;11.40;55.40
25450;DHT22;13371;52.080;5.624;2023-04-03T11:38:31;11.30;54.70
25450;DHT22;13371;52.080;5.624;2023-04-03T11:41:04;11.00;53.60
25450;DHT22;13371;52.080;5.624;2023-04-03T11:43:33;11.70;58.10
25450;DHT22;13371;52.080;5.624;2023-04-03T11:45:59;12.20;54.20
25450;DHT22;13371;52.080;5.624;2023-04-03T11:53:41;11.90;54.60
25450;DHT22;13371;52.080;5.624;2023-04-03T11:56:33;10.90;55.70
25450;DHT22;13371;52.080;5.624;2023-04-03T12:04:15;11.20;56.00
25450;DHT22;13371;52.080;5.624;2023-04-03T12:06:49;11.70;57.40
25450;DHT22;13371;52.080;5.624;2023-04-03T12:09:24;11.60;54.70
25450;DHT22;13371;52.080;5.624;2023-04-03T12:11:51;10.90;53.80
25450;DHT22;13371;52.080;5.624;2023-04-03T12:14:18;11.00;56.40
25450;DHT22;13371;52.080;5.624;2023-04-03T12:16:46;11.70;55.00
25450;DHT22;13371;52.080;5.624;2023-04-03T12:35:05;12.20;54.60
25450;DHT22;13371;52.080;5.624;2023-04-03T12:37:48;12.70;53.50
25450;DHT22;13371;52.080;5.624;2023-04-03T12:43:43;11.90;54.20
25450;DHT22;13371;52.080;5.624;2023-04-03T12:46:19;11.90;55.20
25450;DHT22;13371;52.080;5.624;2023-04-03T12:48:58;11.60;53.90
25450;DHT22;13371;52.080;5.624;2023-04-03T12:51:35;11.80;55.00
25450;DHT22;13371;52.080;5.624;2023-04-03T12:54:32;11.80;54.30
25450;DHT22;13371;52.080;5.624;2023-04-03T12:59:35;10.70;55.80
25450;DHT22;13371;52.080;5.624;2023-04-03T13:02:02;11.10;57.80
25450;DHT22;13371;52.080;5.624;2023-04-03T13:04:28;11.90;56.90
25450;DHT22;13371;52.080;5.624;2023-04-03T13:06:54;12.40;56.70
25450;DHT22;13371;52.080;5.624;2023-04-03T13:09:26;12.60;55.00
25450;DHT22;13371;52.080;5.624;2023-04-03T13:12:12;12.50;53.90
25450;DHT22;13371;52.080;5.624;2023-04-03T13:14:39;12.10;55.60
25450;DHT22;13371;52.080;5.624;2023-04-03T13:17:10;12.20;55.40
25450;DHT22;13371;52.080;5.624;2023-04-03T13:19:37;12.20;55.20
25450;DHT22;13371;52.080;5.624;2023-04-03T13:22:06;12.60;56.40
25450;DHT22;13371;52.080;5.624;2023-04-03T13:24:36;13.00;56.20
25450;DHT22;13371;52.080;5.624;2023-04-03T13:27:04;12.60;54.50
25450;DHT22;13371;52.080;5.624;2023-04-03T13:29:37;12.50;54.30
25450;DHT22;13371;52.080;5.624;2023-04-03T13:32:03;12.10;52.90
25450;DHT22;13371;52.080;5.624;2023-04-03T13:34:42;12.20;56.90
25450;DHT22;13371;52.080;5.624;2023-04-03T13:42:36;11.10;56.30
25450;DHT22;13371;52.080;5.624;2023-04-03T13:45:25;11.40;56.00
25450;DHT22;13371;52.080;5.624;2023-04-03T13:48:09;11.80;55.00
25450;DHT22;13371;52.080;5.624;2023-04-03T13:50:54;11.90;55.40
25450;DHT22;13371;52.080;5.624;2023-04-03T13:53:20;11.30;56.90
25450;DHT22;13371;52.080;5.624;2023-04-03T13:58:27;12.20;58.20
25450;DHT22;13371;52.080;5.624;2023-04-03T14:06:12;12.40;57.30
25450;DHT22;13371;52.080;5.624;2023-04-03T14:08:38;12.10;55.90
25450;DHT22;13371;52.080;5.624;2023-04-03T14:11:04;12.30;57.10
25450;DHT22;13371;52.080;5.624;2023-04-03T14:13:31;12.00;56.00
25450;DHT22;13371;52.080;5.624;2023-04-03T14:15:57;12.20;55.10
25450;DHT22;13371;52.080;5.624;2023-04-03T14:18:22;12.60;57.70
25450;DHT22;13371;52.080;5.624;2023-04-03T14:20:49;12.80;55.30
25450;DHT22;13371;52.080;5.624;2023-04-03T14:23:15;12.70;54.50
25450;DHT22;13371;52.080;5.624;2023-04-03T14:25:41;12.90;53.80
25450;DHT22;13371;52.080;5.624;2023-04-03T14:28:19;12.30;54.40
25450;DHT22;13371;52.080;5.624;2023-04-03T14:30:47;11.90;57.00
25450;DHT22;13371;52.080;5.624;2023-04-03T14:33:15;12.30;57.00
25450;DHT22;13371;52.080;5.624;2023-04-03T14:35:41;12.40;55.00
25450;DHT22;13371;52.080;5.624;2023-04-03T14:38:33;12.30;56.40
25450;DHT22;13371;52.080;5.624;2023-04-03T14:40:59;12.70;56.90
25450;DHT22;13371;52.080;5.624;2023-04-03T14:43:25;12.70;55.60
25450;DHT22;13371;52.080;5.624;2023-04-03T14:45:51;12.40;56.80
25450;DHT22;13371;52.080;5.624;2023-04-03T14:48:24;12.20;58.30
25450;DHT22;13371;52.080;5.624;2023-04-03T14:50:50;12.40;57.60
25450;DHT22;13371;52.080;5.624;2023-04-03T14:53:18;12.70;56.50
25450;DHT22;13371;52.080;5.624;2023-04-03T14:55:48;13.00;56.50
25450;DHT22;13371;52.080;5.624;2023-04-03T14:58:16;13.30;56.00
25450;DHT22;13371;52.080;5.624;2023-04-03T15:00:43;13.50;55.70
25450;DHT22;13371;52.080;5.624;2023-04-03T15:03:16;13.10;55.70
25450;DHT22;13371;52.080;5.624;2023-04-03T15:05:44;13.00;55.70
25450;DHT22;13371;52.080;5.624;2023-04-03T15:08:23;13.10;58.10
25450;DHT22;13371;52.080;5.624;2023-04-03T15:10:50;13.20;57.00
25450;DHT22;13371;52.080;5.624;2023-04-03T15:13:19;13.30;57.70
25450;DHT22;13371;52.080;5.624;2023-04-03T15:15:45;13.10;56.30
25450;DHT22;13371;52.080;5.624;2023-04-03T15:18:17;13.30;59.60
25450;DHT22;13371;52.080;5.624;2023-04-03T15:20:44;13.30;56.50
25450;DHT22;13371;52.080;5.624;2023-04-03T15:23:12;12.60;57.10
25450;DHT22;13371;52.080;5.624;2023-04-03T15:25:38;12.10;59.10
25450;DHT22;13371;52.080;5.624;2023-04-03T15:28:09;12.30;59.60
25450;DHT22;13371;52.080;5.624;2023-04-03T15:30:39;12.40;59.10
25450;DHT22;13371;52.080;5.624;2023-04-03T15:33:05;12.60;60.20
25450;DHT22;13371;52.080;5.624;2023-04-03T15:35:31;12.80;58.10
25450;DHT22;13371;52.080;5.624;2023-04-03T15:37:57;12.80;57.90
25450;DHT22;13371;52.080;5.624;2023-04-03T15:40:25;12.10;56.50
25450;DHT22;13371;52.080;5.624;2023-04-03T15:42:51;12.50;59.70
25450;DHT22;13371;52.080;5.624;2023-04-03T15:45:16;12.40;59.70
25450;DHT22;13371;52.080;5.624;2023-04-03T15:47:42;12.20;59.60
25450;DHT22;13371;52.080;5.624;2023-04-03T15:50:08;12.20;58.70
25450;DHT22;13371;52.080;5.624;2023-04-03T15:52:34;12.30;59.50
25450;DHT22;13371;52.080;5.624;2023-04-03T15:55:00;12.30;58.70
25450;DHT22;13371;52.080;5.624;2023-04-03T15:57:26;12.10;59.10
25450;DHT22;13371;52.080;5.624;2023-04-03T15:59:52;12.30;58.30
25450;DHT22;13371;52.080;5.624;2023-04-03T16:02:18;12.10;59.10
25450;DHT22;13371;52.080;5.624;2023-04-03T16:04:44;12.00;62.30
25450;DHT22;13371;52.080;5.624;2023-04-03T16:07:09;12.50;59.70
25450;DHT22;13371;52.080;5.624;2023-04-03T16:09:36;12.40;58.60
25450;DHT22;13371;52.080;5.624;2023-04-03T16:12:02;11.90;59.30
25450;DHT22;13371;52.080;5.624;2023-04-03T16:14:29;11.60;60.80
25450;DHT22;13371;52.080;5.624;2023-04-03T16:16:56;11.50;62.10
25450;DHT22;13371;52.080;5.624;2023-04-03T16:19:22;11.50;61.40
25450;DHT22;13371;52.080;5.624;2023-04-03T16:21:48;11.50;62.30
25450;DHT22;13371;52.080;5.624;2023-04-03T16:24:14;11.80;62.20
25450;DHT22;13371;52.080;5.624;2023-04-03T16:26:40;12.10;61.20
25450;DHT22;13371;52.080;5.624;2023-04-03T16:29:05;11.90;62.40
25450;DHT22;13371;52.080;5.624;2023-04-03T16:31:33;12.20;61.40
25450;DHT22;13371;52.080;5.624;2023-04-03T16:34:02;11.70;60.70
25450;DHT22;13371;52.080;5.624;2023-04-03T16:36:27;11.40;62.60
25450;DHT22;13371;52.080;5.624;2023-04-03T16:38:53;11.40;62.80
25450;DHT22;13371;52.080;5.624;2023-04-03T16:41:19;11.30;63.30
25450;DHT22;13371;52.080;5.624;2023-04-03T16:43:44;11.20;63.60
25450;DHT22;13371;52.080;5.624;2023-04-03T16:46:10;11.10;62.10
25450;DHT22;13371;52.080;5.624;2023-04-03T16:48:36;11.10;62.90
25450;DHT22;13371;52.080;5.624;2023-04-03T16:51:01;11.10;64.10
25450;DHT22;13371;52.080;5.624;2023-04-03T16:53:27;11.20;64.80
25450;DHT22;13371;52.080;5.624;2023-04-03T16:55:53;11.50;63.10
25450;DHT22;13371;52.080;5.624;2023-04-03T16:58:19;11.40;63.90
25450;DHT22;13371;52.080;5.624;2023-04-03T17:00:44;11.60;64.00
25450;DHT22;13371;52.080;5.624;2023-04-03T17:03:12;11.50;62.90
25450;DHT22;13371;52.080;5.624;2023-04-03T17:05:38;11.60;62.40
25450;DHT22;13371;52.080;5.624;2023-04-03T17:08:03;11.70;62.30
25450;DHT22;13371;52.080;5.624;2023-04-03T17:10:29;11.60;62.60
25450;DHT22;13371;52.080;5.624;2023-04-03T17:12:55;11.30;62.90
25450;DHT22;13371;52.080;5.624;2023-04-03T17:15:21;10.90;63.10
25450;DHT22;13371;52.080;5.624;2023-04-03T17:17:48;11.00;64.30
25450;DHT22;13371;52.080;5.624;2023-04-03T17:20:14;11.10;64.40
25450;DHT22;13371;52.080;5.624;2023-04-03T17:22:40;10.80;63.30
25450;DHT22;13371;52.080;5.624;2023-04-03T17:25:06;11.00;64.60
25450;DHT22;13371;52.080;5.624;2023-04-03T17:27:32;11.10;63.30